createdAt,value
2019-03-21T00:00:40.457Z,1030.90
2019-03-21T00:01:44.666Z,1030.89
2019-03-21T00:02:49.002Z,1030.87
2019-03-21T00:03:53.178Z,1030.91
2019-03-21T00:04:57.410Z,1030.92
2019-03-21T00:06:01.707Z,1030.92
2019-03-21T00:07:05.996Z,1030.90
2019-03-21T00:08:10.216Z,1030.92
2019-03-21T00:09:14.672Z,1030.91
2019-03-21T00:10:18.813Z,1030.91
2019-03-21T00:11:23.019Z,1030.89
2019-03-21T00:12:27.278Z,1030.89
2019-03-21T00:13:31.574Z,1030.87
2019-03-21T00:14:35.869Z,1030.84
2019-03-21T00:15:40.161Z,1030.85
2019-03-21T00:16:44.455Z,1030.82
2019-03-21T00:17:48.631Z,1030.83
2019-03-21T00:18:52.889Z,1030.83
2019-03-21T00:19:57.162Z,1030.82
2019-03-21T00:21:01.441Z,1030.79
2019-03-21T00:22:05.637Z,1030.76
2019-03-21T00:23:09.949Z,1030.74
2019-03-21T00:24:14.107Z,1030.72
2019-03-21T00:25:18.397Z,1030.72
2019-03-21T00:26:22.622Z,1030.72
2019-03-21T00:27:26.991Z,1030.71
2019-03-21T00:28:31.170Z,1030.71
2019-03-21T00:29:35.532Z,1030.73
2019-03-21T00:30:39.720Z,1030.74
2019-03-21T00:31:43.955Z,1030.75
2019-03-21T00:32:48.210Z,1030.76
2019-03-21T00:33:52.514Z,1030.77
2019-03-21T00:34:56.814Z,1030.77
2019-03-21T00:36:01.040Z,1030.75
2019-03-21T00:37:05.209Z,1030.78
2019-03-21T00:38:09.473Z,1030.80
2019-03-21T00:39:13.788Z,1030.79
2019-03-21T00:40:18.018Z,1030.83
2019-03-21T00:41:22.350Z,1030.83
2019-03-21T00:42:26.648Z,1030.84
2019-03-21T00:43:30.920Z,1030.85
2019-03-21T00:44:35.022Z,1030.85
2019-03-21T00:45:39.302Z,1030.84
2019-03-21T00:46:43.530Z,1030.83
2019-03-21T00:47:47.742Z,1030.85
2019-03-21T00:48:52.035Z,1030.84
2019-03-21T00:49:56.239Z,1030.81
2019-03-21T00:51:00.508Z,1030.77
2019-03-21T00:52:04.795Z,1030.78
2019-03-21T00:53:09.084Z,1030.75
2019-03-21T00:54:13.233Z,1030.73
2019-03-21T00:55:20.504Z,1030.74
2019-03-21T00:56:24.050Z,1030.72
2019-03-21T00:57:28.104Z,1030.72
2019-03-21T00:58:32.297Z,1030.74
2019-03-21T00:59:36.525Z,1030.75
2019-03-21T01:00:40.897Z,1030.74
2019-03-21T01:01:45.176Z,1030.75
2019-03-21T01:02:49.383Z,1030.77
2019-03-21T01:03:53.562Z,1030.77
2019-03-21T01:04:57.777Z,1030.74
2019-03-21T01:06:02.137Z,1030.76
2019-03-21T01:07:06.319Z,1030.73
2019-03-21T01:08:10.586Z,1030.68
2019-03-21T01:09:14.824Z,1030.66
2019-03-21T01:10:19.186Z,1030.64
2019-03-21T01:11:23.369Z,1030.64
2019-03-21T01:12:27.619Z,1030.63
2019-03-21T01:13:31.920Z,1030.64
2019-03-21T01:14:36.097Z,1030.63
2019-03-21T01:15:40.401Z,1030.63
2019-03-21T01:16:44.586Z,1030.64
2019-03-21T01:17:48.874Z,1030.64
2019-03-21T01:18:53.180Z,1030.63
2019-03-21T01:19:57.347Z,1030.61
2019-03-21T01:21:01.598Z,1030.63
2019-03-21T01:22:05.932Z,1030.61
2019-03-21T01:23:10.155Z,1030.61
2019-03-21T01:24:14.437Z,1030.64
2019-03-21T01:25:18.696Z,1030.62
2019-03-21T01:26:22.972Z,1030.61
2019-03-21T01:27:27.153Z,1030.62
2019-03-21T01:28:31.433Z,1030.58
2019-03-21T01:29:35.657Z,1030.56
2019-03-21T01:30:39.956Z,1030.54
2019-03-21T01:31:44.141Z,1030.54
2019-03-21T01:32:48.471Z,1030.52
2019-03-21T01:33:52.704Z,1030.57
2019-03-21T01:34:56.897Z,1030.57
2019-03-21T01:36:01.148Z,1030.59
2019-03-21T01:37:05.374Z,1030.60
2019-03-21T01:38:09.611Z,1030.56
2019-03-21T01:39:13.870Z,1030.58
2019-03-21T01:40:18.088Z,1030.59
2019-03-21T01:41:22.369Z,1030.61
2019-03-21T01:42:26.659Z,1030.60
2019-03-21T01:43:30.840Z,1030.60
2019-03-21T01:44:41.054Z,1030.59
2019-03-21T01:45:39.278Z,1030.57
2019-03-21T01:46:43.575Z,1030.54
2019-03-21T01:47:47.776Z,1030.53
2019-03-21T01:48:52.099Z,1030.51
2019-03-21T01:49:56.274Z,1030.48
2019-03-21T01:51:00.567Z,1030.49
2019-03-21T01:52:04.830Z,1030.46
2019-03-21T01:53:09.067Z,1030.44
2019-03-21T01:54:13.296Z,1030.40
2019-03-21T01:55:17.511Z,1030.41
2019-03-21T01:56:21.846Z,1030.36
2019-03-21T01:57:26.087Z,1030.36
2019-03-21T01:58:30.334Z,1030.35
2019-03-21T01:59:34.616Z,1030.34
2019-03-21T02:00:38.875Z,1030.34
2019-03-21T02:01:43.177Z,1030.35
2019-03-21T02:02:47.324Z,1030.33
2019-03-21T02:03:51.643Z,1030.31
2019-03-21T02:04:55.792Z,1030.32
2019-03-21T02:06:00.034Z,1030.37
2019-03-21T02:07:04.271Z,1030.35
2019-03-21T02:08:08.540Z,1030.34
2019-03-21T02:09:12.733Z,1030.36
2019-03-21T02:10:17.065Z,1030.37
2019-03-21T02:11:22.281Z,1030.38
2019-03-21T02:12:29.197Z,1030.37
2019-03-21T02:13:32.516Z,1030.36
2019-03-21T02:14:36.674Z,1030.35
2019-03-21T02:15:40.960Z,1030.34
2019-03-21T02:16:45.227Z,1030.35
2019-03-21T02:17:49.495Z,1030.37
2019-03-21T02:18:53.799Z,1030.39
2019-03-21T02:19:58.083Z,1030.38
2019-03-21T02:21:02.373Z,1030.36
2019-03-21T02:22:06.662Z,1030.34
2019-03-21T02:23:10.934Z,1030.36
2019-03-21T02:24:15.205Z,1030.34
2019-03-21T02:25:22.410Z,1030.34
2019-03-21T02:26:25.766Z,1030.36
2019-03-21T02:27:30.068Z,1030.39
2019-03-21T02:28:34.420Z,1030.39
2019-03-21T02:29:38.659Z,1030.39
2019-03-21T02:30:42.929Z,1030.41
2019-03-21T02:31:47.215Z,1030.41
2019-03-21T02:32:51.517Z,1030.43
2019-03-21T02:33:55.786Z,1030.41
2019-03-21T02:35:00.090Z,1030.45
2019-03-21T02:36:04.408Z,1030.42
2019-03-21T02:37:08.724Z,1030.47
2019-03-21T02:38:12.901Z,1030.47
2019-03-21T02:39:17.208Z,1030.48
2019-03-21T02:40:21.481Z,1030.48
2019-03-21T02:41:25.994Z,1030.46
2019-03-21T02:42:30.056Z,1030.42
2019-03-21T02:43:34.354Z,1030.38
2019-03-21T02:44:38.638Z,1030.37
2019-03-21T02:45:42.923Z,1030.35
2019-03-21T02:46:47.141Z,1030.35
2019-03-21T02:47:51.558Z,1030.36
2019-03-21T02:48:55.802Z,1030.37
2019-03-21T02:50:00.146Z,1030.35
2019-03-21T02:51:04.304Z,1030.34
2019-03-21T02:52:08.660Z,1030.36
2019-03-21T02:53:12.923Z,1030.38
2019-03-21T02:54:17.197Z,1030.37
2019-03-21T02:55:21.595Z,1030.34
2019-03-21T02:56:25.823Z,1030.31
2019-03-21T02:57:30.101Z,1030.31
2019-03-21T02:58:34.358Z,1030.31
2019-03-21T02:59:38.618Z,1030.28
2019-03-21T03:00:42.886Z,1030.30
2019-03-21T03:01:47.163Z,1030.29
2019-03-21T03:02:51.448Z,1030.27
2019-03-21T03:03:55.690Z,1030.25
2019-03-21T03:04:59.957Z,1030.24
2019-03-21T03:06:04.227Z,1030.24
2019-03-21T03:07:08.522Z,1030.26
2019-03-21T03:08:12.769Z,1030.25
2019-03-21T03:09:17.056Z,1030.24
2019-03-21T03:10:21.390Z,1030.25
2019-03-21T03:11:25.663Z,1030.26
2019-03-21T03:12:29.958Z,1030.23
2019-03-21T03:13:34.264Z,1030.27
2019-03-21T03:14:38.493Z,1030.23
2019-03-21T03:15:42.874Z,1030.25
2019-03-21T03:16:47.098Z,1030.23
2019-03-21T03:17:51.392Z,1030.23
2019-03-21T03:18:55.728Z,1030.24
2019-03-21T03:19:59.948Z,1030.23
2019-03-21T03:21:04.241Z,1030.21
2019-03-21T03:22:08.511Z,1030.21
2019-03-21T03:23:12.845Z,1030.22
2019-03-21T03:24:17.117Z,1030.22
2019-03-21T03:25:21.391Z,1030.22
2019-03-21T03:26:25.664Z,1030.20
2019-03-21T03:27:30.052Z,1030.21
2019-03-21T03:28:34.217Z,1030.19
2019-03-21T03:29:38.538Z,1030.20
2019-03-21T03:30:42.906Z,1030.20
2019-03-21T03:31:47.150Z,1030.21
2019-03-21T03:32:51.349Z,1030.20
2019-03-21T03:33:55.667Z,1030.16
2019-03-21T03:34:59.917Z,1030.17
2019-03-21T03:36:04.192Z,1030.14
2019-03-21T03:37:08.367Z,1030.13
2019-03-21T03:38:12.723Z,1030.14
2019-03-21T03:39:16.987Z,1030.16
2019-03-21T03:40:21.263Z,1030.16
2019-03-21T03:41:25.545Z,1030.17
2019-03-21T03:42:29.642Z,1030.17
2019-03-21T03:43:34.090Z,1030.16
2019-03-21T03:44:38.354Z,1030.12
2019-03-21T03:45:42.622Z,1030.12
2019-03-21T03:46:46.927Z,1030.08
2019-03-21T03:47:51.288Z,1030.07
2019-03-21T03:48:55.535Z,1030.03
2019-03-21T03:49:59.872Z,1030.03
2019-03-21T03:51:04.032Z,1030.01
2019-03-21T03:52:08.294Z,1029.98
2019-03-21T03:53:12.587Z,1029.98
2019-03-21T03:54:16.973Z,1029.97
2019-03-21T03:55:21.227Z,1029.92
2019-03-21T03:56:25.472Z,1029.91
2019-03-21T03:57:29.769Z,1029.91
2019-03-21T03:58:34.069Z,1029.90
2019-03-21T03:59:38.322Z,1029.91
2019-03-21T04:00:42.605Z,1029.93
2019-03-21T04:01:46.870Z,1029.93
2019-03-21T04:02:51.139Z,1029.92
2019-03-21T04:03:55.545Z,1029.96
2019-03-21T04:04:59.705Z,1029.99
2019-03-21T04:06:03.952Z,1029.97
2019-03-21T04:07:08.292Z,1029.98
2019-03-21T04:08:12.571Z,1030.00
2019-03-21T04:09:16.788Z,1030.03
2019-03-21T04:10:21.124Z,1030.02
2019-03-21T04:11:25.433Z,1030.03
2019-03-21T04:12:29.712Z,1030.04
2019-03-21T04:13:34.018Z,1030.02
2019-03-21T04:14:38.267Z,1029.99
2019-03-21T04:15:52.725Z,1029.98
2019-03-21T04:16:46.820Z,1029.94
2019-03-21T04:17:51.178Z,1029.95
2019-03-21T04:18:55.461Z,1029.96
2019-03-21T04:19:59.750Z,1029.95
2019-03-21T04:21:03.996Z,1029.96
2019-03-21T04:22:08.254Z,1029.96
2019-03-21T04:23:12.522Z,1029.96
2019-03-21T04:24:16.805Z,1029.96
2019-03-21T04:25:21.016Z,1029.97
2019-03-21T04:26:25.379Z,1029.97
2019-03-21T04:27:29.564Z,1029.99
2019-03-21T04:28:33.891Z,1030.02
2019-03-21T04:29:38.214Z,1030.03
2019-03-21T04:30:42.518Z,1030.03
2019-03-21T04:31:46.922Z,1030.06
2019-03-21T04:32:51.171Z,1030.06
2019-03-21T04:33:55.374Z,1030.05
2019-03-21T04:34:59.681Z,1030.03
2019-03-21T04:36:02.986Z,1030.04
2019-03-21T04:37:07.319Z,1030.03
2019-03-21T04:38:11.608Z,1030.02
2019-03-21T04:39:15.872Z,1030.01
2019-03-21T04:40:20.163Z,1030.02
2019-03-21T04:41:24.431Z,1030.03
2019-03-21T04:42:28.736Z,1030.03
2019-03-21T04:43:32.975Z,1030.01
2019-03-21T04:44:37.305Z,1030.04
2019-03-21T04:45:41.543Z,1030.03
2019-03-21T04:46:45.824Z,1030.03
2019-03-21T04:47:50.052Z,1030.06
2019-03-21T04:48:54.354Z,1030.04
2019-03-21T04:49:58.731Z,1030.05
2019-03-21T04:51:02.864Z,1030.06
2019-03-21T04:52:07.183Z,1030.05
2019-03-21T04:53:11.439Z,1030.05
2019-03-21T04:54:15.707Z,1030.03
2019-03-21T04:55:19.985Z,1030.07
2019-03-21T04:56:24.227Z,1030.04
2019-03-21T04:57:28.487Z,1030.02
2019-03-21T04:58:32.778Z,1030.01
2019-03-21T04:59:37.089Z,1030.01
2019-03-21T05:00:41.357Z,1030.00
2019-03-21T05:01:45.645Z,1029.99
2019-03-21T05:02:50.027Z,1029.99
2019-03-21T05:03:54.281Z,1030.01
2019-03-21T05:05:01.505Z,1030.03
2019-03-21T05:06:04.850Z,1030.05
2019-03-21T05:07:09.209Z,1030.08
2019-03-21T05:08:13.546Z,1030.08
2019-03-21T05:09:17.795Z,1030.07
2019-03-21T05:10:22.180Z,1030.07
2019-03-21T05:11:26.428Z,1030.10
2019-03-21T05:12:30.686Z,1030.10
2019-03-21T05:13:35.010Z,1030.11
2019-03-21T05:14:39.242Z,1030.11
2019-03-21T05:15:43.510Z,1030.09
2019-03-21T05:16:47.806Z,1030.11
2019-03-21T05:17:52.096Z,1030.09
2019-03-21T05:18:56.377Z,1030.10
2019-03-21T05:20:00.663Z,1030.09
2019-03-21T05:21:04.977Z,1030.08
2019-03-21T05:22:09.226Z,1030.05
2019-03-21T05:23:13.499Z,1030.05
2019-03-21T05:24:17.664Z,1030.05
2019-03-21T05:25:21.994Z,1030.05
2019-03-21T05:26:26.295Z,1030.06
2019-03-21T05:27:30.545Z,1030.04
2019-03-21T05:28:34.834Z,1030.03
2019-03-21T05:29:39.140Z,1030.05
2019-03-21T05:30:43.315Z,1030.05
2019-03-21T05:31:47.650Z,1030.07
2019-03-21T05:32:51.932Z,1030.08
2019-03-21T05:33:56.256Z,1030.12
2019-03-21T05:35:00.620Z,1030.11
2019-03-21T05:36:04.915Z,1030.14
2019-03-21T05:37:09.190Z,1030.17
2019-03-21T05:38:13.462Z,1030.14
2019-03-21T05:39:17.711Z,1030.13
2019-03-21T05:40:21.901Z,1030.14
2019-03-21T05:41:26.259Z,1030.15
2019-03-21T05:42:30.577Z,1030.16
2019-03-21T05:43:34.847Z,1030.16
2019-03-21T05:44:39.150Z,1030.18
2019-03-21T05:45:43.443Z,1030.19
2019-03-21T05:46:47.762Z,1030.20
2019-03-21T05:47:52.148Z,1030.24
2019-03-21T05:48:56.388Z,1030.29
2019-03-21T05:50:03.653Z,1030.30
2019-03-21T05:51:07.054Z,1030.31
2019-03-21T05:52:11.412Z,1030.35
2019-03-21T05:53:15.642Z,1030.36
2019-03-21T05:54:19.949Z,1030.34
2019-03-21T05:55:26.698Z,1030.37
2019-03-21T05:56:28.542Z,1030.36
2019-03-21T05:57:32.820Z,1030.39
2019-03-21T05:58:37.165Z,1030.39
2019-03-21T05:59:41.448Z,1030.39
2019-03-21T06:00:45.723Z,1030.36
2019-03-21T06:01:50.014Z,1030.37
2019-03-21T06:02:54.313Z,1030.32
2019-03-21T06:03:58.580Z,1030.32
2019-03-21T06:05:02.855Z,1030.31
2019-03-21T06:06:07.224Z,1030.30
2019-03-21T06:07:11.588Z,1030.29
2019-03-21T06:08:15.736Z,1030.32
2019-03-21T06:09:20.063Z,1030.31
2019-03-21T06:10:24.303Z,1030.33
2019-03-21T06:11:28.601Z,1030.33
2019-03-21T06:12:32.915Z,1030.34
2019-03-21T06:13:37.112Z,1030.36
2019-03-21T06:14:41.422Z,1030.36
2019-03-21T06:15:45.644Z,1030.34
2019-03-21T06:16:49.976Z,1030.34
2019-03-21T06:17:54.229Z,1030.33
2019-03-21T06:18:58.641Z,1030.33
2019-03-21T06:20:04.228Z,1030.33
2019-03-21T06:21:07.197Z,1030.32
2019-03-21T06:22:11.565Z,1030.29
2019-03-21T06:23:15.806Z,1030.33
2019-03-21T06:24:19.997Z,1030.33
2019-03-21T06:25:24.325Z,1030.35
2019-03-21T06:26:28.700Z,1030.37
2019-03-21T06:27:32.948Z,1030.39
2019-03-21T06:28:37.263Z,1030.38
2019-03-21T06:29:41.538Z,1030.41
2019-03-21T06:30:45.748Z,1030.43
2019-03-21T06:31:50.135Z,1030.44
2019-03-21T06:32:54.434Z,1030.43
2019-03-21T06:33:58.680Z,1030.42
2019-03-21T06:35:02.994Z,1030.40
2019-03-21T06:36:07.257Z,1030.39
2019-03-21T06:37:11.682Z,1030.36
2019-03-21T06:38:15.990Z,1030.39
2019-03-21T06:39:20.239Z,1030.36
2019-03-21T06:40:24.542Z,1030.34
2019-03-21T06:41:28.867Z,1030.30
2019-03-21T06:42:33.187Z,1030.29
2019-03-21T06:43:37.496Z,1030.30
2019-03-21T06:44:41.892Z,1030.30
2019-03-21T06:45:48.228Z,1030.29
2019-03-21T06:46:50.301Z,1030.30
2019-03-21T06:47:54.620Z,1030.30
2019-03-21T06:48:58.938Z,1030.31
2019-03-21T06:50:03.145Z,1030.31
2019-03-21T06:51:07.415Z,1030.33
2019-03-21T06:52:11.682Z,1030.33
2019-03-21T06:53:15.985Z,1030.33
2019-03-21T06:54:20.212Z,1030.34
2019-03-21T06:55:24.519Z,1030.37
2019-03-21T06:56:28.774Z,1030.40
2019-03-21T06:57:32.947Z,1030.41
2019-03-21T06:58:37.174Z,1030.43
2019-03-21T06:59:41.459Z,1030.42
2019-03-21T07:00:45.873Z,1030.40
2019-03-21T07:01:50.196Z,1030.41
2019-03-21T07:02:54.483Z,1030.40
2019-03-21T07:04:07.052Z,1030.43
2019-03-21T07:05:03.077Z,1030.41
2019-03-21T07:06:07.396Z,1030.39
2019-03-21T07:07:11.696Z,1030.40
2019-03-21T07:08:15.916Z,1030.39
2019-03-21T07:09:20.203Z,1030.42
2019-03-21T07:10:24.510Z,1030.41
2019-03-21T07:11:28.750Z,1030.44
2019-03-21T07:12:32.956Z,1030.44
2019-03-21T07:13:37.417Z,1030.46
2019-03-21T07:14:41.656Z,1030.47
2019-03-21T07:15:45.969Z,1030.49
2019-03-21T07:17:00.078Z,1030.52
2019-03-21T07:17:54.510Z,1030.51
2019-03-21T07:18:58.891Z,1030.50
2019-03-21T07:20:03.190Z,1030.53
2019-03-21T07:21:07.508Z,1030.55
2019-03-21T07:22:12.481Z,1030.54
2019-03-21T07:23:16.136Z,1030.53
2019-03-21T07:24:20.314Z,1030.50
2019-03-21T07:25:24.611Z,1030.49
2019-03-21T07:26:28.821Z,1030.49
2019-03-21T07:27:33.058Z,1030.49
2019-03-21T07:28:38.584Z,1030.46
2019-03-21T07:29:41.601Z,1030.46
2019-03-21T07:30:45.962Z,1030.45
2019-03-21T07:31:50.236Z,1030.45
2019-03-21T07:32:54.541Z,1030.48
2019-03-21T07:33:58.958Z,1030.45
2019-03-21T07:35:03.064Z,1030.48
2019-03-21T07:36:07.521Z,1030.48
2019-03-21T07:37:11.717Z,1030.49
2019-03-21T07:38:16.039Z,1030.52
2019-03-21T07:39:20.241Z,1030.53
2019-03-21T07:40:24.604Z,1030.58
2019-03-21T07:41:28.897Z,1030.59
2019-03-21T07:42:33.196Z,1030.63
2019-03-21T07:43:37.519Z,1030.64
2019-03-21T07:44:41.801Z,1030.65
2019-03-21T07:45:45.998Z,1030.67
2019-03-21T07:46:50.310Z,1030.66
2019-03-21T07:47:54.527Z,1030.63
2019-03-21T07:48:58.832Z,1030.68
2019-03-21T07:50:03.100Z,1030.69
2019-03-21T07:51:07.342Z,1030.66
2019-03-21T07:52:11.668Z,1030.66
2019-03-21T07:53:15.917Z,1030.71
2019-03-21T07:54:20.188Z,1030.66
2019-03-21T07:55:24.442Z,1030.70
2019-03-21T07:56:28.799Z,1030.71
2019-03-21T07:57:33.098Z,1030.69
2019-03-21T07:58:37.400Z,1030.73
2019-03-21T07:59:41.641Z,1030.78
2019-03-21T08:00:45.944Z,1030.80
2019-03-21T08:01:50.217Z,1030.83
2019-03-21T08:02:54.515Z,1030.87
2019-03-21T08:03:58.741Z,1030.90
2019-03-21T08:05:03.027Z,1030.92
2019-03-21T08:06:07.304Z,1030.90
2019-03-21T08:07:11.567Z,1030.92
2019-03-21T08:08:15.815Z,1030.92
2019-03-21T08:09:20.129Z,1030.94
2019-03-21T08:10:24.423Z,1030.95
2019-03-21T08:11:28.763Z,1030.94
2019-03-21T08:12:35.959Z,1030.97
2019-03-21T08:13:39.342Z,1030.94
2019-03-21T08:14:43.588Z,1030.97
2019-03-21T08:15:47.801Z,1030.96
2019-03-21T08:16:52.020Z,1030.97
2019-03-21T08:17:56.303Z,1030.98
2019-03-21T08:19:00.611Z,1030.98
2019-03-21T08:20:04.790Z,1030.96
2019-03-21T08:21:09.055Z,1030.97
2019-03-21T08:22:13.299Z,1030.98
2019-03-21T08:23:17.665Z,1030.97
2019-03-21T08:24:21.862Z,1030.97
2019-03-21T08:25:26.065Z,1030.94
2019-03-21T08:26:30.373Z,1030.98
2019-03-21T08:27:34.554Z,1030.99
2019-03-21T08:28:38.866Z,1031.03
2019-03-21T08:29:43.089Z,1031.04
2019-03-21T08:30:47.317Z,1031.06
2019-03-21T08:31:51.645Z,1031.07
2019-03-21T08:32:55.820Z,1031.06
2019-03-21T08:34:00.111Z,1031.08
2019-03-21T08:35:04.337Z,1031.14
2019-03-21T08:36:08.558Z,1031.14
2019-03-21T08:37:12.837Z,1031.17
2019-03-21T08:38:17.034Z,1031.18
2019-03-21T08:39:21.324Z,1031.19
2019-03-21T08:40:25.558Z,1031.20
2019-03-21T08:41:29.908Z,1031.19
2019-03-21T08:42:34.105Z,1031.15
2019-03-21T08:43:38.370Z,1031.16
2019-03-21T08:44:42.632Z,1031.15
2019-03-21T08:45:46.903Z,1031.18
2019-03-21T08:46:51.130Z,1031.19
2019-03-21T08:47:55.373Z,1031.24
2019-03-21T08:48:59.684Z,1031.23
2019-03-21T08:50:03.994Z,1031.23
2019-03-21T08:51:08.989Z,1031.22
2019-03-21T08:52:12.374Z,1031.22
2019-03-21T08:53:16.652Z,1031.21
2019-03-21T08:54:20.904Z,1031.19
2019-03-21T08:55:25.132Z,1031.18
2019-03-21T08:56:29.400Z,1031.16
2019-03-21T08:57:33.656Z,1031.17
2019-03-21T08:58:37.892Z,1031.16
2019-03-21T08:59:42.136Z,1031.18
2019-03-21T09:00:46.343Z,1031.19
2019-03-21T09:01:50.606Z,1031.20
2019-03-21T09:02:54.847Z,1031.22
2019-03-21T09:03:59.106Z,1031.20
2019-03-21T09:05:03.336Z,1031.21
2019-03-21T09:06:07.543Z,1031.20
2019-03-21T09:07:11.811Z,1031.19
2019-03-21T09:08:16.026Z,1031.18
2019-03-21T09:09:20.312Z,1031.19
2019-03-21T09:10:24.530Z,1031.20
2019-03-21T09:11:28.882Z,1031.20
2019-03-21T09:12:33.065Z,1031.23
2019-03-21T09:13:37.208Z,1031.23
2019-03-21T09:14:41.536Z,1031.24
2019-03-21T09:15:45.864Z,1031.25
2019-03-21T09:16:50.181Z,1031.24
2019-03-21T09:17:55.463Z,1031.23
2019-03-21T09:18:58.603Z,1031.22
2019-03-21T09:20:02.979Z,1031.24
2019-03-21T09:21:07.258Z,1031.25
2019-03-21T09:22:11.463Z,1031.24
2019-03-21T09:23:15.702Z,1031.21
2019-03-21T09:24:19.957Z,1031.21
2019-03-21T09:25:24.208Z,1031.22
2019-03-21T09:26:28.461Z,1031.20
2019-03-21T09:27:32.705Z,1031.18
2019-03-21T09:28:36.960Z,1031.18
2019-03-21T09:29:52.853Z,1031.17
2019-03-21T09:30:45.440Z,1031.15
2019-03-21T09:31:49.882Z,1031.18
2019-03-21T09:32:54.126Z,1031.17
2019-03-21T09:33:58.304Z,1031.15
2019-03-21T09:35:02.588Z,1031.13
2019-03-21T09:36:06.813Z,1031.14
2019-03-21T09:37:11.097Z,1031.15
2019-03-21T09:38:15.330Z,1031.15
2019-03-21T09:39:19.674Z,1031.15
2019-03-21T09:40:23.907Z,1031.16
2019-03-21T09:41:28.234Z,1031.17
2019-03-21T09:42:32.436Z,1031.13
2019-03-21T09:43:36.707Z,1031.13
2019-03-21T09:44:40.930Z,1031.13
2019-03-21T09:45:45.213Z,1031.11
2019-03-21T09:46:50.987Z,1031.09
2019-03-21T09:47:53.745Z,1031.08
2019-03-21T09:48:57.982Z,1031.09
2019-03-21T09:50:02.242Z,1031.07
2019-03-21T09:51:06.520Z,1031.03
2019-03-21T09:52:10.845Z,1031.04
2019-03-21T09:53:14.998Z,1031.00
2019-03-21T09:54:19.257Z,1031.00
2019-03-21T09:55:23.521Z,1031.02
2019-03-21T09:56:27.745Z,1031.00
2019-03-21T09:57:31.946Z,1030.97
2019-03-21T09:58:36.345Z,1030.97
2019-03-21T09:59:40.560Z,1030.93
2019-03-21T10:00:44.864Z,1030.89
2019-03-21T10:01:49.022Z,1030.87
2019-03-21T10:02:53.334Z,1030.86
2019-03-21T10:03:57.732Z,1030.84
2019-03-21T10:05:01.955Z,1030.85
2019-03-21T10:06:06.316Z,1030.81
2019-03-21T10:07:10.525Z,1030.86
2019-03-21T10:08:14.767Z,1030.83
2019-03-21T10:09:19.135Z,1030.82
2019-03-21T10:10:23.346Z,1030.83
2019-03-21T10:11:27.639Z,1030.80
2019-03-21T10:12:31.910Z,1030.79
2019-03-21T10:13:36.287Z,1030.78
2019-03-21T10:14:40.491Z,1030.75
2019-03-21T10:15:44.806Z,1030.76
2019-03-21T10:16:48.968Z,1030.74
2019-03-21T10:17:53.272Z,1030.75
2019-03-21T10:18:57.493Z,1030.73
2019-03-21T10:20:01.778Z,1030.76
2019-03-21T10:21:06.062Z,1030.79
2019-03-21T10:22:10.275Z,1030.79
2019-03-21T10:23:14.440Z,1030.83
2019-03-21T10:24:18.813Z,1030.83
2019-03-21T10:25:23.148Z,1030.82
2019-03-21T10:26:27.424Z,1030.80
2019-03-21T10:27:31.716Z,1030.84
2019-03-21T10:28:36.042Z,1030.81
2019-03-21T10:29:40.359Z,1030.83
2019-03-21T10:30:44.561Z,1030.82
2019-03-21T10:31:48.839Z,1030.79
2019-03-21T10:32:53.115Z,1030.82
2019-03-21T10:33:57.439Z,1030.84
2019-03-21T10:35:04.697Z,1030.84
2019-03-21T10:36:08.069Z,1030.83
2019-03-21T10:37:12.310Z,1030.84
2019-03-21T10:38:16.591Z,1030.89
2019-03-21T10:39:20.939Z,1030.89
2019-03-21T10:40:25.270Z,1030.86
2019-03-21T10:41:29.552Z,1030.88
2019-03-21T10:42:33.846Z,1030.89
2019-03-21T10:43:38.172Z,1030.91
2019-03-21T10:44:42.417Z,1030.92
2019-03-21T10:45:46.625Z,1030.91
2019-03-21T10:46:50.935Z,1030.93
2019-03-21T10:47:55.178Z,1030.93
2019-03-21T10:48:59.429Z,1030.93
2019-03-21T10:50:03.704Z,1030.94
2019-03-21T10:51:07.994Z,1030.95
2019-03-21T10:52:12.280Z,1030.94
2019-03-21T10:53:16.622Z,1030.95
2019-03-21T10:54:23.529Z,1030.92
2019-03-21T10:55:25.169Z,1030.93
2019-03-21T10:56:29.484Z,1030.92
2019-03-21T10:57:33.680Z,1030.93
2019-03-21T10:58:37.923Z,1030.90
2019-03-21T10:59:42.234Z,1030.92
2019-03-21T11:00:46.443Z,1030.89
2019-03-21T11:01:50.747Z,1030.89
2019-03-21T11:02:54.914Z,1030.88
2019-03-21T11:03:59.235Z,1030.87
2019-03-21T11:05:03.532Z,1030.85
2019-03-21T11:06:07.876Z,1030.87
2019-03-21T11:07:12.260Z,1030.82
2019-03-21T11:08:16.464Z,1030.81
2019-03-21T11:09:20.791Z,1030.82
2019-03-21T11:10:25.114Z,1030.79
2019-03-21T11:11:29.463Z,1030.76
2019-03-21T11:12:33.722Z,1030.77
2019-03-21T11:13:37.985Z,1030.75
2019-03-21T11:14:42.353Z,1030.77
2019-03-21T11:15:46.605Z,1030.80
2019-03-21T11:16:50.827Z,1030.75
2019-03-21T11:17:55.143Z,1030.77
2019-03-21T11:18:59.419Z,1030.75
2019-03-21T11:20:03.711Z,1030.77
2019-03-21T11:21:07.992Z,1030.73
2019-03-21T11:22:12.323Z,1030.76
2019-03-21T11:23:16.604Z,1030.71
2019-03-21T11:24:20.880Z,1030.73
2019-03-21T11:25:25.161Z,1030.74
2019-03-21T11:26:29.418Z,1030.74
2019-03-21T11:27:33.736Z,1030.71
2019-03-21T11:28:38.024Z,1030.72
2019-03-21T11:29:42.274Z,1030.72
2019-03-21T11:30:46.646Z,1030.74
2019-03-21T11:31:50.836Z,1030.72
2019-03-21T11:32:55.133Z,1030.73
2019-03-21T11:33:59.457Z,1030.75
2019-03-21T11:35:03.820Z,1030.74
2019-03-21T11:36:08.139Z,1030.76
2019-03-21T11:37:12.395Z,1030.75
2019-03-21T11:38:16.661Z,1030.74
2019-03-21T11:39:20.968Z,1030.73
2019-03-21T11:40:25.353Z,1030.72
2019-03-21T11:41:29.566Z,1030.73
2019-03-21T11:42:33.867Z,1030.73
2019-03-21T11:43:38.243Z,1030.75
2019-03-21T11:44:42.581Z,1030.75
2019-03-21T11:45:47.957Z,1030.76
2019-03-21T11:46:51.045Z,1030.77
2019-03-21T11:47:55.385Z,1030.76
2019-03-21T11:48:59.656Z,1030.77
2019-03-21T11:50:03.891Z,1030.75
2019-03-21T11:51:08.137Z,1030.77
2019-03-21T11:52:18.104Z,1030.75
2019-03-21T11:53:16.826Z,1030.74
2019-03-21T11:54:21.105Z,1030.76
2019-03-21T11:55:25.406Z,1030.75
2019-03-21T11:56:29.607Z,1030.73
2019-03-21T11:57:33.886Z,1030.75
2019-03-21T11:58:38.249Z,1030.78
2019-03-21T11:59:51.468Z,1030.78
2019-03-21T12:00:46.743Z,1030.80
2019-03-21T12:01:51.043Z,1030.78
2019-03-21T12:02:55.291Z,1030.74
2019-03-21T12:03:59.625Z,1030.78
2019-03-21T12:05:03.943Z,1030.78
2019-03-21T12:06:08.181Z,1030.78
2019-03-21T12:07:12.428Z,1030.76
2019-03-21T12:08:16.730Z,1030.78
2019-03-21T12:09:20.975Z,1030.76
2019-03-21T12:10:25.228Z,1030.77
2019-03-21T12:11:29.501Z,1030.78
2019-03-21T12:12:33.867Z,1030.75
2019-03-21T12:13:38.089Z,1030.75
2019-03-21T12:14:42.438Z,1030.73
2019-03-21T12:15:46.636Z,1030.73
2019-03-21T12:16:50.943Z,1030.72
2019-03-21T12:17:55.327Z,1030.68
2019-03-21T12:18:59.627Z,1030.63
2019-03-21T12:20:03.888Z,1030.63
2019-03-21T12:21:08.109Z,1030.62
2019-03-21T12:22:12.478Z,1030.60
2019-03-21T12:23:16.745Z,1030.57
2019-03-21T12:24:20.958Z,1030.52
2019-03-21T12:25:25.228Z,1030.53
2019-03-21T12:26:29.598Z,1030.48
2019-03-21T12:27:33.931Z,1030.48
2019-03-21T12:28:38.156Z,1030.50
2019-03-21T12:29:42.522Z,1030.48
2019-03-21T12:30:46.699Z,1030.49
2019-03-21T12:31:50.887Z,1030.48
2019-03-21T12:32:55.201Z,1030.50
2019-03-21T12:33:59.512Z,1030.53
2019-03-21T12:35:03.774Z,1030.53
2019-03-21T12:36:08.005Z,1030.49
2019-03-21T12:37:12.355Z,1030.51
2019-03-21T12:38:16.698Z,1030.50
2019-03-21T12:39:20.928Z,1030.50
2019-03-21T12:40:25.277Z,1030.50
2019-03-21T12:41:29.536Z,1030.48
2019-03-21T12:42:33.806Z,1030.49
2019-03-21T12:43:38.135Z,1030.49
2019-03-21T12:44:42.336Z,1030.46
2019-03-21T12:45:46.610Z,1030.47
2019-03-21T12:46:50.946Z,1030.44
2019-03-21T12:47:55.260Z,1030.41
2019-03-21T12:48:59.526Z,1030.40
2019-03-21T12:50:03.865Z,1030.39
2019-03-21T12:51:08.169Z,1030.37
2019-03-21T12:52:12.378Z,1030.33
2019-03-21T12:53:16.796Z,1030.35
2019-03-21T12:54:21.011Z,1030.32
2019-03-21T12:55:25.280Z,1030.30
2019-03-21T12:56:29.635Z,1030.28
2019-03-21T12:57:33.833Z,1030.30